Ardgay, United Kingdom
Current Conditions -  °F | °C
As of 3:50 PM on Thursday 27 Nov 2014 (Local Time) from EGPE Reporting Station
Scattered Clouds Scattered Clouds  
Wind Chill: 43°   Ceiling: Unl
Heat Index: 43°   Visibility: 6mi
Dew Point: 43°   Wind: 3mph
Humidity: 100%   Direction: 90°E
Pressure: 29.62"   Gusts: NA
Location:  57.9°N, 4.35°W
Report Text: EGPE 271550Z 09003KT 9999 FEW005 SCT032 06/06 Q1003
Loading
Personal Weather Stations






























Interactive Weather Map New forecast layout! Learn more

10-Day Weather Forecast

Advertisements
Track Severe Weather on mobile